createdAt,value
2018-04-02T00:01:35.157Z,14.37
2018-04-02T00:04:01.410Z,12.20
2018-04-02T00:06:27.670Z,12.50
2018-04-02T00:08:53.937Z,11.60
2018-04-02T00:11:20.217Z,11.53
2018-04-02T00:13:46.524Z,11.67
2018-04-02T00:16:12.782Z,12.17
2018-04-02T00:18:39.101Z,12.20
2018-04-02T00:21:05.344Z,13.03
2018-04-02T00:23:31.604Z,12.77
2018-04-02T00:25:57.937Z,12.37
2018-04-02T00:28:24.197Z,12.87
2018-04-02T00:30:50.448Z,12.43
2018-04-02T00:33:16.686Z,12.87
2018-04-02T00:35:42.993Z,12.97
2018-04-02T00:38:09.238Z,13.03
2018-04-02T00:40:35.509Z,12.63
2018-04-02T00:43:01.821Z,12.30
2018-04-02T00:45:28.088Z,12.33
2018-04-02T00:47:54.329Z,11.60
2018-04-02T00:50:20.593Z,12.30
2018-04-02T00:52:46.857Z,11.77
2018-04-02T00:55:13.202Z,11.70
2018-04-02T00:57:39.497Z,11.97
2018-04-02T01:00:05.788Z,12.20
2018-04-02T01:02:32.076Z,11.77
2018-04-02T01:04:58.377Z,12.60
2018-04-02T01:07:24.637Z,11.70
2018-04-02T01:09:50.863Z,12.13
2018-04-02T01:12:17.129Z,10.93
2018-04-02T01:14:43.375Z,11.27
2018-04-02T01:17:09.635Z,10.90
2018-04-02T01:19:35.896Z,11.30
2018-04-02T01:22:02.134Z,14.10
2018-04-02T01:24:28.400Z,11.33
2018-04-02T01:26:54.633Z,11.10
2018-04-02T01:29:20.923Z,12.40
2018-04-02T01:31:47.157Z,11.13
2018-04-02T01:34:13.514Z,11.57
2018-04-02T01:36:39.740Z,10.57
2018-04-02T01:39:05.991Z,11.20
2018-04-02T01:41:32.246Z,11.77
2018-04-02T01:43:58.484Z,10.87
2018-04-02T01:46:24.745Z,10.90
2018-04-02T01:48:51.177Z,11.70
2018-04-02T01:51:17.437Z,13.40
2018-04-02T01:53:43.727Z,10.53
2018-04-02T01:56:09.981Z,10.73
2018-04-02T01:58:36.221Z,11.67
2018-04-02T02:01:02.486Z,10.57
2018-04-02T02:03:28.756Z,9.23
2018-04-02T02:05:55.037Z,12.17
2018-04-02T02:08:21.299Z,10.03
2018-04-02T02:10:47.539Z,10.40
2018-04-02T02:13:13.879Z,10.57
2018-04-02T02:15:40.125Z,8.93
2018-04-02T02:18:06.398Z,9.63
2018-04-02T02:20:32.674Z,8.60
2018-04-02T02:22:58.952Z,8.93
2018-04-02T02:25:25.220Z,9.63
2018-04-02T02:27:51.451Z,9.60
2018-04-02T02:30:17.724Z,10.03
2018-04-02T02:32:44.003Z,10.10
2018-04-02T02:35:10.297Z,10.83
2018-04-02T02:37:36.533Z,11.33
2018-04-02T02:40:02.829Z,11.90
2018-04-02T02:42:29.105Z,12.40
2018-04-02T02:44:55.407Z,13.83
2018-04-02T02:47:21.714Z,12.53
2018-04-02T02:49:47.948Z,14.03
2018-04-02T02:52:14.226Z,13.97
2018-04-02T02:54:40.496Z,12.90
2018-04-02T02:57:06.762Z,14.13
2018-04-02T02:59:32.997Z,13.53
2018-04-02T03:01:59.293Z,14.03
2018-04-02T03:04:25.547Z,15.47
2018-04-02T03:06:51.808Z,14.13
2018-04-02T03:09:18.093Z,15.30
2018-04-02T03:11:44.342Z,13.57
2018-04-02T03:14:10.654Z,13.70
2018-04-02T03:16:36.885Z,14.40
2018-04-02T03:19:03.162Z,14.47
2018-04-02T03:21:29.390Z,14.47
2018-04-02T03:23:55.665Z,14.90
2018-04-02T03:26:21.901Z,15.27
2018-04-02T03:28:48.137Z,14.60
2018-04-02T03:31:14.411Z,14.67
2018-04-02T03:33:40.649Z,15.40
2018-04-02T03:36:06.923Z,15.47
2018-04-02T03:38:33.160Z,15.73
2018-04-02T03:40:59.436Z,14.90
2018-04-02T03:43:25.677Z,15.00
2018-04-02T03:45:51.953Z,13.60
2018-04-02T03:48:18.204Z,15.50
2018-04-02T03:50:44.453Z,15.87
2018-04-02T03:53:10.751Z,14.73
2018-04-02T03:55:37.025Z,16.23
2018-04-02T03:58:03.281Z,15.10
2018-04-02T04:00:29.522Z,18.47
2018-04-02T04:02:55.805Z,14.97
2018-04-02T04:05:22.056Z,14.13
2018-04-02T04:07:48.360Z,15.13
2018-04-02T04:10:14.615Z,15.73
2018-04-02T04:12:40.905Z,15.70
2018-04-02T04:15:07.181Z,15.30
2018-04-02T04:17:33.451Z,15.97
2018-04-02T04:19:59.821Z,17.47
2018-04-02T04:22:26.073Z,17.63
2018-04-02T04:24:52.351Z,16.37
2018-04-02T04:27:18.646Z,16.23
2018-04-02T04:29:44.947Z,15.73
2018-04-02T04:32:11.193Z,16.40
2018-04-02T04:34:37.458Z,17.90
2018-04-02T04:37:03.763Z,15.57
2018-04-02T04:39:30.010Z,16.07
2018-04-02T04:41:56.292Z,16.07
2018-04-02T04:44:22.544Z,15.77
2018-04-02T04:46:48.824Z,16.03
2018-04-02T04:49:15.098Z,16.37
2018-04-02T04:51:41.388Z,14.70
2018-04-02T04:54:07.993Z,14.53
2018-04-02T04:56:34.253Z,16.40
2018-04-02T04:59:00.525Z,16.60
2018-04-02T05:01:26.789Z,15.63
2018-04-02T05:03:53.117Z,14.63
2018-04-02T05:06:19.434Z,15.57
2018-04-02T05:08:45.714Z,14.70
2018-04-02T05:11:11.957Z,16.97
2018-04-02T05:13:38.240Z,15.07
2018-04-02T05:16:04.521Z,14.53
2018-04-02T05:18:30.766Z,16.27
2018-04-02T05:20:57.070Z,15.30
2018-04-02T05:23:23.376Z,14.63
2018-04-02T05:25:49.654Z,15.23
2018-04-02T05:28:15.902Z,14.77
2018-04-02T05:30:42.170Z,14.17
2018-04-02T05:33:08.429Z,14.33
2018-04-02T05:35:34.714Z,34.43
2018-04-02T05:38:00.952Z,15.37
2018-04-02T05:40:27.189Z,14.33
2018-04-02T05:42:53.456Z,16.33
2018-04-02T05:45:19.710Z,14.90
2018-04-02T05:47:45.996Z,14.20
2018-04-02T05:50:12.234Z,14.97
2018-04-02T05:52:38.496Z,13.93
2018-04-02T05:55:04.735Z,13.30
2018-04-02T05:57:30.992Z,13.03
2018-04-02T05:59:57.257Z,14.30
2018-04-02T06:02:23.528Z,13.83
2018-04-02T06:04:49.825Z,14.03
2018-04-02T06:07:16.092Z,13.83
2018-04-02T06:09:42.372Z,14.30
2018-04-02T06:12:08.637Z,13.70
2018-04-02T06:14:34.902Z,13.57
2018-04-02T06:17:01.133Z,13.77
2018-04-02T06:19:27.386Z,12.93
2018-04-02T06:21:53.677Z,12.30
2018-04-02T06:24:19.917Z,13.40
2018-04-02T06:26:46.220Z,13.00
2018-04-02T06:29:12.465Z,13.13
2018-04-02T06:31:38.739Z,13.07
2018-04-02T06:34:05.021Z,13.67
2018-04-02T06:36:31.281Z,13.63
2018-04-02T06:38:57.546Z,13.67
2018-04-02T06:41:23.772Z,12.87
2018-04-02T06:43:50.041Z,13.07
2018-04-02T06:46:16.285Z,12.47
2018-04-02T06:48:42.557Z,12.87
2018-04-02T06:51:08.814Z,12.00
2018-04-02T06:53:35.092Z,13.07
2018-04-02T06:56:01.329Z,12.90
2018-04-02T06:58:27.614Z,12.67
2018-04-02T07:00:53.882Z,12.03
2018-04-02T07:03:20.144Z,12.57
2018-04-02T07:05:46.423Z,12.93
2018-04-02T07:08:12.702Z,11.87
2018-04-02T07:10:38.973Z,12.27
2018-04-02T07:13:05.220Z,11.50
2018-04-02T07:15:31.501Z,11.53
2018-04-02T07:17:57.769Z,11.83
2018-04-02T07:20:24.049Z,11.97
2018-04-02T07:22:50.416Z,10.40
2018-04-02T07:25:16.668Z,11.00
2018-04-02T07:27:42.975Z,11.63
2018-04-02T07:30:09.225Z,11.43
2018-04-02T07:32:35.525Z,10.30
2018-04-02T07:35:01.768Z,11.40
2018-04-02T07:37:28.041Z,10.37
2018-04-02T07:39:54.374Z,12.27
2018-04-02T07:42:20.677Z,10.70
2018-04-02T07:44:46.937Z,10.83
2018-04-02T07:47:13.225Z,10.87
2018-04-02T07:49:39.540Z,10.33
2018-04-02T07:52:05.776Z,10.80
2018-04-02T07:54:32.567Z,9.97
2018-04-02T07:56:59.135Z,9.97
2018-04-02T07:59:25.698Z,11.10
2018-04-02T08:01:53.378Z,9.60
2018-04-02T08:04:19.888Z,10.30
2018-04-02T08:06:46.136Z,10.10
2018-04-02T08:09:12.789Z,10.33
2018-04-02T08:11:39.263Z,10.27
2018-04-02T08:14:05.665Z,10.73
2018-04-02T08:16:31.956Z,10.10
2018-04-02T08:18:58.200Z,10.43
2018-04-02T08:21:24.548Z,10.40
2018-04-02T08:23:50.814Z,9.70
2018-04-02T08:26:17.405Z,10.73
2018-04-02T08:28:43.800Z,9.90
2018-04-02T08:31:10.297Z,9.70
2018-04-02T08:33:36.640Z,10.30
2018-04-02T08:36:02.933Z,10.20
2018-04-02T08:38:29.347Z,10.53
2018-04-02T08:40:55.786Z,11.03
2018-04-02T08:43:22.146Z,11.00
2018-04-02T08:45:48.575Z,10.53
2018-04-02T08:48:14.894Z,10.47
2018-04-02T08:50:41.423Z,9.53
2018-04-02T08:53:07.771Z,10.03
2018-04-02T08:55:34.261Z,9.87
2018-04-02T08:58:00.673Z,9.47
2018-04-02T09:00:27.716Z,9.53
2018-04-02T09:02:54.018Z,10.20
2018-04-02T09:05:20.524Z,10.77
2018-04-02T09:07:46.827Z,11.50
2018-04-02T09:10:13.166Z,11.30
2018-04-02T09:12:39.458Z,10.83
2018-04-02T09:15:05.757Z,11.27
2018-04-02T09:17:32.020Z,10.50
2018-04-02T09:19:58.414Z,10.97
2018-04-02T09:22:24.737Z,11.70
2018-04-02T09:24:51.030Z,11.93
2018-04-02T09:27:17.401Z,12.13
2018-04-02T09:29:43.692Z,13.23
2018-04-02T09:32:09.974Z,16.07
2018-04-02T09:34:36.288Z,14.97
2018-04-02T09:37:02.579Z,15.00
2018-04-02T09:39:28.869Z,16.03
2018-04-02T09:41:55.120Z,15.50
2018-04-02T09:44:21.403Z,16.37
2018-04-02T09:46:47.653Z,16.93
2018-04-02T09:49:14.045Z,16.10
2018-04-02T09:51:40.301Z,17.13
2018-04-02T09:54:06.647Z,16.30
2018-04-02T09:56:32.916Z,15.57
2018-04-02T09:58:59.222Z,15.43
2018-04-02T10:01:28.540Z,14.47
2018-04-02T10:03:54.801Z,15.23
2018-04-02T10:06:21.081Z,16.00
2018-04-02T10:08:47.324Z,14.93
2018-04-02T10:11:13.745Z,14.53
2018-04-02T10:13:39.988Z,14.17
2018-04-02T10:16:06.253Z,14.10
2018-04-02T10:18:32.529Z,14.27
2018-04-02T10:20:58.774Z,14.10
2018-04-02T10:23:25.045Z,14.63
2018-04-02T10:25:51.293Z,13.47
2018-04-02T10:28:17.663Z,13.47
2018-04-02T10:30:43.904Z,13.17
2018-04-02T10:33:10.196Z,13.10
2018-04-02T10:35:36.486Z,12.00
2018-04-02T10:38:02.764Z,11.10
2018-04-02T10:40:29.046Z,10.90
2018-04-02T10:42:55.326Z,10.13
2018-04-02T10:45:21.651Z,9.33
2018-04-02T10:47:47.916Z,10.30
2018-04-02T10:50:14.197Z,8.70
2018-04-02T10:52:40.507Z,8.77
2018-04-02T10:55:06.819Z,8.93
2018-04-02T10:57:33.065Z,9.03
2018-04-02T10:59:59.312Z,8.97
2018-04-02T11:02:25.594Z,14.53
2018-04-02T11:04:51.846Z,8.33
2018-04-02T11:07:18.129Z,8.57
2018-04-02T11:09:44.374Z,7.37
2018-04-02T11:12:10.642Z,7.97
2018-04-02T11:14:36.912Z,8.33
2018-04-02T11:17:03.251Z,7.30
2018-04-02T11:19:29.521Z,7.87
2018-04-02T11:21:55.793Z,8.37
2018-04-02T11:24:22.081Z,9.03
2018-04-02T11:26:48.417Z,9.77
2018-04-02T11:29:14.710Z,8.53
2018-04-02T11:31:40.957Z,10.00
2018-04-02T11:34:07.250Z,9.40
2018-04-02T11:36:33.547Z,9.40
2018-04-02T11:38:59.869Z,10.07
2018-04-02T11:41:26.116Z,9.23
2018-04-02T11:43:52.380Z,9.63
2018-04-02T11:46:18.698Z,10.20
2018-04-02T11:48:45.017Z,10.33
2018-04-02T11:51:11.346Z,10.10
2018-04-02T11:53:37.622Z,11.20
2018-04-02T11:56:03.929Z,11.20
2018-04-02T11:58:30.180Z,10.90
2018-04-02T12:00:56.527Z,9.77
2018-04-02T12:03:22.784Z,9.93
2018-04-02T12:05:49.041Z,10.00
2018-04-02T12:08:15.326Z,9.10
2018-04-02T12:10:41.621Z,10.43
2018-04-02T12:13:08.082Z,10.77
2018-04-02T12:15:34.350Z,10.90
2018-04-02T12:18:00.785Z,11.20
2018-04-02T12:20:27.053Z,10.83
2018-04-02T12:22:53.372Z,10.60
2018-04-02T12:25:19.834Z,10.87
2018-04-02T12:27:46.125Z,10.20
2018-04-02T12:30:12.463Z,10.10
2018-04-02T12:32:38.824Z,9.93
2018-04-02T12:35:05.466Z,10.07
2018-04-02T12:37:31.749Z,11.47
2018-04-02T12:39:58.148Z,10.57
2018-04-02T12:42:24.564Z,10.63
2018-04-02T12:44:50.833Z,11.07
2018-04-02T12:47:17.143Z,11.27
2018-04-02T12:49:43.433Z,10.60
2018-04-02T12:52:09.741Z,10.37
2018-04-02T12:54:36.039Z,10.40
2018-04-02T12:57:02.407Z,9.95
2018-04-02T12:59:28.644Z,8.90
2018-04-02T13:01:54.953Z,9.45
2018-04-02T13:04:21.205Z,8.77
2018-04-02T13:06:47.456Z,9.65
2018-04-02T13:09:13.761Z,9.10
2018-04-02T13:11:40.052Z,9.13
2018-04-02T13:14:06.398Z,9.52
2018-04-02T13:16:32.665Z,9.23
2018-04-02T13:18:58.973Z,9.35
2018-04-02T13:21:25.224Z,8.45
2018-04-02T13:23:51.594Z,10.00
2018-04-02T13:26:17.853Z,9.30
2018-04-02T13:28:44.125Z,9.25
2018-04-02T13:31:10.425Z,9.30
2018-04-02T13:33:36.786Z,8.32
2018-04-02T13:36:03.379Z,9.25
2018-04-02T13:38:29.633Z,8.60
2018-04-02T13:40:55.960Z,8.35
2018-04-02T13:43:22.232Z,8.65
2018-04-02T13:45:48.635Z,8.60
2018-04-02T13:48:14.885Z,7.82
2018-04-02T13:50:41.157Z,9.15
2018-04-02T13:53:07.496Z,8.50
2018-04-02T13:55:33.766Z,7.70
2018-04-02T13:58:00.047Z,8.30
2018-04-02T14:00:26.300Z,8.27
2018-04-02T14:02:52.576Z,8.65
2018-04-02T14:05:18.882Z,8.07
2018-04-02T14:07:45.182Z,8.23
2018-04-02T14:10:11.599Z,8.80
2018-04-02T14:12:37.880Z,8.45
2018-04-02T14:15:04.189Z,8.35
2018-04-02T14:17:30.524Z,7.40
2018-04-02T14:19:56.785Z,7.60
2018-04-02T14:22:23.017Z,7.55
2018-04-02T14:24:49.324Z,7.93
2018-04-02T14:27:15.554Z,7.18
2018-04-02T14:29:41.836Z,7.45
2018-04-02T14:32:08.135Z,7.90
2018-04-02T14:34:34.373Z,7.65
2018-04-02T14:37:00.643Z,7.87
2018-04-02T14:39:26.897Z,7.82
2018-04-02T14:41:53.182Z,7.70
2018-04-02T14:44:19.412Z,7.62
2018-04-02T14:46:45.716Z,6.78
2018-04-02T14:49:11.956Z,8.30
2018-04-02T14:51:38.208Z,8.00
2018-04-02T14:54:04.497Z,7.28
2018-04-02T14:56:30.766Z,7.37
2018-04-02T14:58:57.065Z,7.70
2018-04-02T15:01:23.322Z,8.02
2018-04-02T15:03:49.597Z,8.05
2018-04-02T15:06:15.835Z,10.68
2018-04-02T15:08:42.191Z,8.23
2018-04-02T15:11:08.438Z,8.73
2018-04-02T15:13:35.841Z,8.20
2018-04-02T15:16:02.133Z,7.90
2018-04-02T15:18:28.415Z,7.35
2018-04-02T15:20:54.672Z,7.05
2018-04-02T15:23:20.920Z,7.32
2018-04-02T15:25:47.220Z,7.53
2018-04-02T15:28:13.545Z,8.63
2018-04-02T15:30:39.828Z,11.85
2018-04-02T15:33:06.101Z,8.57
2018-04-02T15:35:32.437Z,8.10
2018-04-02T15:37:58.734Z,7.83
2018-04-02T15:40:24.999Z,8.30
2018-04-02T15:42:51.286Z,7.77
2018-04-02T15:45:17.640Z,7.40
2018-04-02T15:47:43.920Z,7.97
2018-04-02T15:50:10.205Z,6.80
2018-04-02T15:52:36.484Z,6.77
2018-04-02T15:55:02.792Z,8.10
2018-04-02T15:57:29.048Z,7.80
2018-04-02T15:59:55.322Z,7.03
2018-04-02T16:02:21.661Z,6.87
2018-04-02T16:04:47.951Z,6.50
2018-04-02T16:07:14.192Z,6.30
2018-04-02T16:09:40.457Z,6.00
2018-04-02T16:12:06.692Z,5.83
2018-04-02T16:14:32.929Z,6.63
2018-04-02T16:16:59.193Z,6.17
2018-04-02T16:19:25.585Z,7.20
2018-04-02T16:21:51.860Z,6.37
2018-04-02T16:24:18.153Z,6.67
2018-04-02T16:26:44.417Z,6.57
2018-04-02T16:29:10.872Z,56.20
2018-04-02T16:31:37.151Z,12.60
2018-04-02T16:34:03.431Z,7.23
2018-04-02T16:36:29.693Z,6.40
2018-04-02T16:38:55.949Z,6.57
2018-04-02T16:41:22.190Z,6.00
2018-04-02T16:43:48.490Z,5.27
2018-04-02T16:46:14.719Z,6.23
2018-04-02T16:48:40.993Z,5.50
2018-04-02T16:51:07.268Z,5.83
2018-04-02T16:53:34.080Z,5.67
2018-04-02T16:56:00.355Z,6.67
2018-04-02T16:58:26.621Z,5.40
2018-04-02T17:00:52.933Z,5.60
2018-04-02T17:03:19.220Z,6.23
2018-04-02T17:05:45.497Z,6.10
2018-04-02T17:08:11.784Z,6.30
2018-04-02T17:10:38.024Z,5.50
2018-04-02T17:13:04.308Z,5.70
2018-04-02T17:15:30.552Z,5.60
2018-04-02T17:17:56.812Z,5.07
2018-04-02T17:20:23.059Z,5.87
2018-04-02T17:22:49.312Z,12.33
2018-04-02T17:25:15.588Z,7.77
2018-04-02T17:27:42.050Z,5.53
2018-04-02T17:30:08.317Z,4.93
2018-04-02T17:32:34.584Z,5.80
2018-04-02T17:35:00.851Z,5.30
2018-04-02T17:37:27.112Z,5.60
2018-04-02T17:39:53.432Z,5.00
2018-04-02T17:42:19.673Z,10.80
2018-04-02T17:44:45.985Z,8.20
2018-04-02T17:47:12.229Z,6.27
2018-04-02T17:49:38.506Z,6.00
2018-04-02T17:52:04.785Z,6.27
2018-04-02T17:54:31.048Z,10.37
2018-04-02T17:56:57.353Z,7.43
2018-04-02T17:59:23.644Z,6.80
2018-04-02T18:01:49.913Z,6.93
2018-04-02T18:04:16.168Z,6.87
2018-04-02T18:06:42.446Z,6.07
2018-04-02T18:09:08.744Z,7.40
2018-04-02T18:11:35.016Z,6.37
2018-04-02T18:14:01.270Z,28.57
2018-04-02T18:16:27.633Z,41.40
2018-04-02T18:18:54.005Z,10.33
2018-04-02T18:21:20.253Z,7.63
2018-04-02T18:23:46.518Z,6.63
2018-04-02T18:26:12.781Z,6.00
2018-04-02T18:28:39.149Z,5.40
2018-04-02T18:31:05.384Z,6.60
2018-04-02T18:33:31.685Z,7.20
2018-04-02T18:35:58.012Z,10.10
2018-04-02T18:38:24.256Z,9.03
2018-04-02T18:40:50.526Z,8.50
2018-04-02T18:43:16.812Z,7.40
2018-04-02T18:45:43.081Z,7.23
2018-04-02T18:48:09.315Z,7.07
2018-04-02T18:50:35.601Z,6.83
2018-04-02T18:53:01.951Z,7.20
2018-04-02T18:55:28.188Z,6.50
2018-04-02T18:57:54.472Z,6.93
2018-04-02T19:00:20.717Z,7.20
2018-04-02T19:02:47.058Z,7.53
2018-04-02T19:05:13.283Z,44.57
2018-04-02T19:07:39.574Z,26.07
2018-04-02T19:10:05.943Z,7.00
2018-04-02T19:12:32.473Z,6.37
2018-04-02T19:14:59.057Z,5.43
2018-04-02T19:17:25.321Z,5.50
2018-04-02T19:19:51.732Z,5.90
2018-04-02T19:22:18.068Z,6.13
2018-04-02T19:24:44.318Z,6.00
2018-04-02T19:27:10.608Z,7.90
2018-04-02T19:29:37.386Z,5.97
2018-04-02T19:32:03.745Z,5.47
2018-04-02T19:34:30.146Z,6.27
2018-04-02T19:36:56.521Z,6.00
2018-04-02T19:39:22.773Z,6.03
2018-04-02T19:41:49.205Z,6.23
2018-04-02T19:44:16.331Z,5.40
2018-04-02T19:46:42.598Z,5.87
2018-04-02T19:49:08.929Z,5.93
2018-04-02T19:51:35.185Z,5.17
2018-04-02T19:54:01.444Z,5.23
2018-04-02T19:56:27.697Z,5.10
2018-04-02T19:58:54.064Z,5.00
2018-04-02T20:01:20.320Z,5.20
2018-04-02T20:03:46.614Z,5.63
2018-04-02T20:06:12.864Z,4.60
2018-04-02T20:08:39.105Z,8.97
2018-04-02T20:11:05.375Z,7.00
2018-04-02T20:13:31.679Z,5.30
2018-04-02T20:15:57.967Z,4.70
2018-04-02T20:18:24.301Z,4.77
2018-04-02T20:20:50.549Z,4.93
2018-04-02T20:23:16.820Z,4.73
2018-04-02T20:25:43.585Z,4.60
2018-04-02T20:28:09.889Z,5.20
2018-04-02T20:30:36.129Z,4.63
2018-04-02T20:33:02.586Z,4.33
2018-04-02T20:35:28.868Z,4.10
2018-04-02T20:37:55.106Z,5.10
2018-04-02T20:40:21.481Z,4.70
2018-04-02T20:42:47.760Z,5.00
2018-04-02T20:45:14.426Z,4.30
2018-04-02T20:47:40.676Z,4.77
2018-04-02T20:50:07.028Z,4.83
2018-04-02T20:52:33.445Z,4.40
2018-04-02T20:54:59.685Z,4.00
2018-04-02T20:57:26.333Z,4.47
2018-04-02T20:59:52.589Z,4.70
2018-04-02T21:02:18.872Z,3.80
2018-04-02T21:04:45.325Z,4.57
2018-04-02T21:07:11.605Z,4.63
2018-04-02T21:09:38.184Z,4.10
2018-04-02T21:12:04.494Z,4.20
2018-04-02T21:14:30.734Z,4.30
2018-04-02T21:16:57.170Z,3.87
2018-04-02T21:19:23.584Z,4.20
2018-04-02T21:21:50.055Z,4.07
2018-04-02T21:24:16.352Z,3.70
2018-04-02T21:26:42.596Z,3.40
2018-04-02T21:29:08.979Z,3.80
2018-04-02T21:31:35.235Z,3.93
2018-04-02T21:34:01.582Z,3.83
2018-04-02T21:36:27.873Z,3.70
2018-04-02T21:38:54.143Z,4.33
2018-04-02T21:41:20.688Z,3.90
2018-04-02T21:43:46.937Z,4.30
2018-04-02T21:46:13.475Z,3.80
2018-04-02T21:48:39.717Z,3.53
2018-04-02T21:51:06.020Z,3.63
2018-04-02T21:53:32.507Z,3.40
2018-04-02T21:55:58.744Z,3.40
2018-04-02T21:58:25.140Z,3.30
2018-04-02T22:00:51.461Z,3.67
2018-04-02T22:03:17.718Z,3.73
2018-04-02T22:05:44.273Z,3.60
2018-04-02T22:08:10.547Z,3.23
2018-04-02T22:10:36.921Z,3.50
2018-04-02T22:13:03.309Z,3.20
2018-04-02T22:15:29.607Z,3.13
2018-04-02T22:17:56.137Z,3.27
2018-04-02T22:20:22.781Z,3.77
2018-04-02T22:22:49.213Z,3.53
2018-04-02T22:25:15.508Z,3.37
2018-04-02T22:27:41.745Z,2.93
2018-04-02T22:30:08.279Z,3.10
2018-04-02T22:32:34.508Z,3.20
2018-04-02T22:35:00.862Z,3.20
2018-04-02T22:37:27.295Z,3.03
2018-04-02T22:39:53.598Z,3.00
2018-04-02T22:42:20.202Z,3.23
2018-04-02T22:44:46.459Z,2.83
2018-04-02T22:47:12.818Z,2.77
2018-04-02T22:49:39.152Z,3.67
2018-04-02T22:52:05.481Z,2.80
2018-04-02T22:54:31.990Z,3.17
2018-04-02T22:56:58.257Z,2.90
2018-04-02T22:59:24.654Z,3.13
2018-04-02T23:01:51.047Z,2.83
2018-04-02T23:04:17.317Z,3.10
2018-04-02T23:06:43.921Z,3.30
2018-04-02T23:09:10.276Z,2.77
2018-04-02T23:11:36.610Z,2.73
2018-04-02T23:14:03.029Z,2.47
2018-04-02T23:16:29.296Z,3.10
2018-04-02T23:18:55.809Z,2.80
2018-04-02T23:21:22.097Z,2.57
2018-04-02T23:23:48.432Z,2.30
2018-04-02T23:26:14.693Z,2.73
2018-04-02T23:28:40.936Z,2.33
2018-04-02T23:31:07.213Z,2.87
2018-04-02T23:33:33.468Z,2.50
2018-04-02T23:35:59.740Z,2.73
2018-04-02T23:38:26.012Z,2.27
2018-04-02T23:40:52.262Z,2.33
2018-04-02T23:43:18.528Z,2.40
2018-04-02T23:45:44.771Z,2.20
2018-04-02T23:48:11.028Z,2.37
2018-04-02T23:50:37.290Z,2.30
2018-04-02T23:53:03.569Z,2.10
2018-04-02T23:55:29.809Z,2.67
2018-04-02T23:57:56.084Z,2.40
